Time;durP1;ratioP1;P1;durP2;ratioP2;P2;SDS_P1;SDS_P2;PMS_P1;PMS_P2;Temp;Humidity;BMP_temperature;BMP_pressure;BME280_temperature;BME280_humidity;BME280_pressure;Samples;Min_cycle;Max_cycle;Signal;HPM_P1;HPM_P2
2021/10/31 00:01:13;;;;;;;13.55;7.82;;;;;;;4.73;78.37;97183.50;5096512;28;20035;-62
2021/10/31 00:03:39;;;;;;;11.50;7.40;;;;;;;4.67;78.66;97179.22;5096452;28;20043;-64
2021/10/31 00:06:04;;;;;;;12.63;8.52;;;;;;;4.63;78.59;97180.06;5096360;28;20028;-63
2021/10/31 00:08:30;;;;;;;12.90;9.20;;;;;;;4.60;79.09;97183.53;5096477;28;20492;-61
2021/10/31 00:10:57;;;;;;;15.38;8.57;;;;;;;4.59;78.67;97183.56;5096329;28;20027;-61
2021/10/31 00:13:24;;;;;;;13.10;8.68;;;;;;;4.58;78.63;97179.25;5096372;28;20103;-65
2021/10/31 00:15:49;;;;;;;12.85;7.80;;;;;;;4.53;78.05;97172.34;5096338;28;20016;-61
2021/10/31 00:18:15;;;;;;;12.05;7.75;;;;;;;4.45;78.43;97173.25;5096201;28;20397;-64
2021/10/31 00:20:41;;;;;;;12.82;8.27;;;;;;;4.43;79.17;97176.69;5096241;28;20020;-65
2021/10/31 00:23:07;;;;;;;12.65;8.88;;;;;;;4.37;79.46;97171.53;5096240;28;20020;-66
2021/10/31 00:25:32;;;;;;;10.30;8.18;;;;;;;4.39;80.55;97172.41;5095942;28;20386;-63
2021/10/31 00:27:58;;;;;;;9.77;7.07;;;;;;;4.39;79.04;97172.41;5096059;28;20035;-62
2021/10/31 00:30:24;;;;;;;13.18;8.02;;;;;;;4.34;79.05;97175.88;5094809;28;20070;-61
2021/10/31 00:32:49;;;;;;;12.73;9.23;;;;;;;4.23;79.37;97178.47;5095984;28;20028;-62
2021/10/31 00:35:15;;;;;;;16.15;9.52;;;;;;;4.27;79.46;97180.19;5095860;28;20127;-63
2021/10/31 00:37:40;;;;;;;13.50;8.40;;;;;;;4.31;79.47;97179.34;5095870;28;20106;-64
2021/10/31 00:40:06;;;;;;;13.48;8.30;;;;;;;4.33;79.23;97175.00;5095871;28;20026;-65
2021/10/31 00:42:32;;;;;;;12.88;8.00;;;;;;;4.32;78.70;97170.69;5095700;28;20095;-63
2021/10/31 00:44:57;;;;;;;12.35;8.63;;;;;;;4.32;79.12;97169.81;5095737;28;20489;-63
2021/10/31 00:47:23;;;;;;;10.95;7.10;;;;;;;4.34;79.59;97174.16;5095714;28;20043;-64
2021/10/31 00:49:48;;;;;;;11.20;7.85;;;;;;;4.32;79.53;97172.41;5095664;28;20095;-64
2021/10/31 00:52:16;;;;;;;11.27;7.85;;;;;;;4.32;78.90;97173.28;5095517;28;20016;-64
2021/10/31 00:54:41;;;;;;;12.40;7.70;;;;;;;4.32;79.21;97175.00;5095463;28;20020;-63
2021/10/31 00:57:09;;;;;;;9.45;7.28;;;;;;;4.22;79.06;97156.03;5095501;28;20066;-62
2021/10/31 00:59:35;;;;;;;14.90;8.15;;;;;;;4.34;79.29;97168.97;5095172;28;20131;-62
2021/10/31 01:02:05;;;;;;;10.57;7.57;;;;;;;4.41;79.35;97168.06;5095364;28;20107;-64
2021/10/31 01:04:31;;;;;;;;;;;;;;;4.47;79.12;97168.91;5095734;28;20031;-65
2021/10/31 01:06:57;;;;;;;9.95;7.88;;;;;;;4.48;79.03;97170.66;5094626;28;19912;-64
2021/10/31 01:09:38;;;;;;;10.85;7.55;;;;;;;4.55;78.55;97172.34;5095294;28;20032;-64
2021/10/31 01:12:41;;;;;;;14.00;8.40;;;;;;;4.59;78.35;97168.00;5095266;28;20028;-62
2021/10/31 01:15:22;;;;;;;9.02;7.63;;;;;;;4.62;78.56;97163.69;5095146;28;20020;-63
2021/10/31 01:18:06;;;;;;;;;;;;;;;4.67;78.40;97163.66;5095589;28;20491;-64
2021/10/31 01:20:40;;;;;;;15.02;7.43;;;;;;;4.64;78.45;97163.69;5095121;28;19912;-63
2021/10/31 01:23:12;;;;;;;14.80;8.57;;;;;;;4.64;79.13;97161.09;5095107;28;20478;-63
2021/10/31 01:26:05;;;;;;;16.60;8.73;;;;;;;4.70;79.09;97161.06;5094962;28;20034;-62
2021/10/31 01:29:10;;;;;;;14.05;9.52;;;;;;;4.76;79.05;97155.81;5094935;28;20031;-62
2021/10/31 01:31:54;;;;;;;17.02;10.68;;;;;;;4.79;78.55;97150.63;5094914;28;20058;-65
2021/10/31 01:34:52;;;;;;;14.80;9.27;;;;;;;4.88;79.15;97147.13;5094851;28;20036;-62
2021/10/31 01:37:46;;;;;;;14.93;9.13;;;;;;;4.92;78.80;97153.16;5094766;28;20092;-63
2021/10/31 01:40:13;;;;;;;12.35;8.50;;;;;;;4.96;78.79;97146.25;5094644;28;20044;-62
2021/10/31 01:43:01;;;;;;;14.23;9.10;;;;;;;4.97;79.33;97147.94;5094485;28;20478;-66
2021/10/31 01:45:53;;;;;;;11.10;7.40;;;;;;;4.95;79.30;97136.72;5094565;28;20035;-64
2021/10/31 01:48:59;;;;;;;18.60;9.27;;;;;;;4.98;79.16;97142.75;5094673;28;20031;-64
2021/10/31 01:51:41;;;;;;;14.52;9.02;;;;;;;5.00;79.35;97132.38;5094414;28;20036;-62
2021/10/31 01:54:15;;;;;;;13.13;8.38;;;;;;;5.09;79.75;97127.09;5094350;28;20028;-63
2021/10/31 01:56:44;;;;;;;10.25;8.00;;;;;;;5.14;79.42;97127.94;5094263;28;20099;-65
2021/10/31 01:59:17;;;;;;;14.10;8.13;;;;;;;5.15;79.97;97126.22;5093981;28;20044;-62
2021/10/31 02:01:44;;;;;;;8.73;7.43;;;;;;;5.18;80.18;97121.03;5094196;28;20390;-64
2021/10/31 02:04:14;;;;;;;12.65;7.63;;;;;;;5.21;79.90;97130.50;5094122;28;20025;-63
2021/10/31 02:06:47;;;;;;;14.02;8.32;;;;;;;5.29;80.76;97126.97;5093998;28;20035;-60
2021/10/31 02:09:15;;;;;;;12.48;8.80;;;;;;;5.36;80.65;97132.13;5094076;28;20031;-66
2021/10/31 02:11:43;;;;;;;12.15;8.73;;;;;;;5.40;80.72;97129.50;5094120;28;20044;-62
2021/10/31 02:14:09;;;;;;;13.32;8.48;;;;;;;5.47;80.77;97134.63;5093993;28;20031;-63
2021/10/31 02:16:36;;;;;;;11.57;8.00;;;;;;;5.54;80.87;97129.38;5094002;28;20072;-62
2021/10/31 02:19:08;;;;;;;9.98;8.10;;;;;;;5.53;80.51;97130.25;5093272;28;20027;-65
2021/10/31 02:21:36;;;;;;;12.98;9.10;;;;;;;5.51;80.63;97125.97;5093995;28;20385;-62
2021/10/31 02:24:04;;;;;;;12.43;8.77;;;;;;;5.56;81.12;97131.97;5093858;28;20026;-65
2021/10/31 02:26:30;;;;;;;11.00;8.65;;;;;;;5.64;81.23;97129.31;5093700;28;20031;-61
2021/10/31 02:29:01;;;;;;;12.65;8.38;;;;;;;5.68;81.06;97137.06;5093813;28;20056;-63
2021/10/31 02:31:28;;;;;;;9.95;7.95;;;;;;;5.73;80.52;97134.41;5093629;28;20474;-63
2021/10/31 02:33:55;;;;;;;13.95;8.32;;;;;;;5.77;80.18;97125.72;5093683;28;20027;-65
2021/10/31 02:36:20;;;;;;;9.70;7.50;;;;;;;5.80;80.13;97128.28;5093649;28;20032;-63
2021/10/31 02:38:46;;;;;;;11.23;8.13;;;;;;;5.88;80.00;97123.03;5093580;28;20066;-63
2021/10/31 02:41:12;;;;;;;12.35;8.25;;;;;;;5.94;80.09;97114.31;5093556;28;20023;-62
2021/10/31 02:43:37;;;;;;;11.10;8.52;;;;;;;5.93;80.13;97115.19;5093514;28;20024;-65
2021/10/31 02:46:04;;;;;;;10.68;8.65;;;;;;;5.89;79.96;97119.56;5093469;28;20027;-66
2021/10/31 02:48:31;;;;;;;15.55;9.60;;;;;;;5.88;80.25;97120.44;5093447;28;20062;-64
2021/10/31 02:51:14;;;;;;;15.75;9.73;;;;;;;5.94;80.73;97114.31;5093300;28;20021;-62
2021/10/31 02:54:00;;;;;;;12.80;8.75;;;;;;;5.99;80.38;97115.09;5093508;28;20020;-62
2021/10/31 02:56:30;;;;;;;12.95;9.50;;;;;;;6.03;80.46;97122.03;5093392;28;20027;-65
2021/10/31 02:59:14;;;;;;;13.73;9.23;;;;;;;6.06;80.73;97115.94;5093186;28;20109;-60
2021/10/31 03:01:41;;;;;;;14.63;8.80;;;;;;;6.14;80.57;97116.72;5093388;28;20115;-65
2021/10/31 03:04:07;;;;;;;11.38;8.10;;;;;;;6.21;80.61;97127.03;5093301;28;20036;-66
2021/10/31 03:06:33;;;;;;;12.63;8.90;;;;;;;6.22;80.47;97120.97;5093034;28;20466;-64
2021/10/31 03:08:59;;;;;;;11.10;8.25;;;;;;;6.28;80.25;97126.09;5093181;28;20024;-63
2021/10/31 03:11:27;;;;;;;12.27;8.45;;;;;;;6.32;80.08;97118.25;5093204;28;20054;-62
2021/10/31 03:13:52;;;;;;;13.13;7.65;;;;;;;6.36;80.08;97123.41;5093113;28;20024;-62
2021/10/31 03:16:18;;;;;;;8.98;7.20;;;;;;;6.39;79.82;97121.66;5093152;28;20078;-62
2021/10/31 03:18:44;;;;;;;14.07;7.95;;;;;;;6.38;79.70;97112.13;5093160;28;20052;-61
2021/10/31 03:21:10;;;;;;;10.93;7.60;;;;;;;6.39;79.53;97116.44;5093082;28;20035;-61
2021/10/31 03:23:37;;;;;;;13.23;8.30;;;;;;;6.41;79.75;97117.28;5093039;28;20024;-63
2021/10/31 03:26:02;;;;;;;10.48;7.90;;;;;;;6.48;79.92;97117.22;5092978;28;20136;-67
2021/10/31 03:28:28;;;;;;;9.35;7.60;;;;;;;6.50;79.68;97118.06;5093051;28;20557;-60
2021/10/31 03:30:53;;;;;;;13.18;8.90;;;;;;;6.43;79.64;97112.94;5096116;28;20502;-63
2021/10/31 03:33:19;;;;;;;12.55;8.63;;;;;;;6.40;79.75;97115.56;5097175;28;20031;-64
2021/10/31 03:35:44;;;;;;;11.00;8.27;;;;;;;6.44;80.16;97112.03;5097022;28;20024;-65
2021/10/31 03:38:10;;;;;;;11.38;8.40;;;;;;;6.52;80.14;97113.69;5096967;28;20025;-61
2021/10/31 03:40:36;;;;;;;12.18;8.40;;;;;;;6.52;80.01;97109.34;5097073;28;20027;-65
2021/10/31 03:43:01;;;;;;;9.98;7.50;;;;;;;6.57;80.06;97109.31;5096924;28;20027;-64
2021/10/31 03:45:27;;;;;;;12.98;8.00;;;;;;;6.60;79.72;97111.88;5096770;28;20024;-60
2021/10/31 03:47:53;;;;;;;12.15;8.60;;;;;;;6.62;79.71;97112.69;5096874;28;20020;-65
2021/10/31 03:50:21;;;;;;;14.63;7.57;;;;;;;6.64;79.46;97107.47;5096685;28;20069;-63
2021/10/31 03:52:48;;;;;;;11.23;7.13;;;;;;;6.68;79.39;97116.94;5096644;28;20351;-63
2021/10/31 03:55:15;;;;;;;9.77;7.75;;;;;;;6.70;79.61;97107.38;5096774;28;20020;-62
2021/10/31 03:57:41;;;;;;;12.38;8.52;;;;;;;6.73;79.46;97115.16;5096722;28;20100;-65
2021/10/31 04:00:11;;;;;;;9.70;7.78;;;;;;;6.72;79.55;97116.03;5096424;28;20131;-63
2021/10/31 04:02:38;;;;;;;9.75;7.57;;;;;;;6.78;79.87;97104.69;5096580;28;20032;-66
2021/10/31 04:05:08;;;;;;;8.68;7.10;;;;;;;6.82;79.60;97109.84;5096336;28;20536;-63
2021/10/31 04:07:34;;;;;;;13.50;8.23;;;;;;;6.85;79.61;97119.31;5096491;28;20036;-64
2021/10/31 04:10:00;;;;;;;9.18;7.75;;;;;;;6.82;79.59;97107.22;5096461;28;20054;-63
2021/10/31 04:12:25;;;;;;;8.88;7.72;;;;;;;6.74;79.71;97109.06;5096374;28;20454;-63
2021/10/31 04:14:51;;;;;;;12.13;8.50;;;;;;;6.73;79.97;97101.28;5094964;28;20518;-65
2021/10/31 04:17:17;;;;;;;14.02;9.40;;;;;;;6.76;80.05;97114.25;5096373;28;20060;-63
2021/10/31 04:19:42;;;;;;;12.38;9.23;;;;;;;6.79;80.35;97115.06;5096203;28;20107;-64
2021/10/31 04:22:08;;;;;;;10.40;8.52;;;;;;;6.85;80.30;97113.25;5096243;28;20036;-63
2021/10/31 04:24:34;;;;;;;11.98;8.30;;;;;;;6.88;79.92;97108.88;5096202;28;20491;-63
2021/10/31 04:27:01;;;;;;;11.88;7.90;;;;;;;6.93;80.05;97114.03;5095949;28;20028;-66
2021/10/31 04:29:27;;;;;;;11.10;8.23;;;;;;;6.95;80.18;97107.03;5096001;28;20043;-66
2021/10/31 04:31:54;;;;;;;11.48;9.60;;;;;;;6.97;79.81;97113.09;5095940;28;20415;-61
2021/10/31 04:34:20;;;;;;;11.18;9.02;;;;;;;7.01;79.96;97111.31;5095894;28;20493;-63
2021/10/31 04:36:45;;;;;;;10.00;8.23;;;;;;;7.03;79.95;97104.34;5095908;28;20061;-61
2021/10/31 04:39:11;;;;;;;10.90;8.02;;;;;;;7.07;79.89;97106.88;5095824;28;20105;-64
2021/10/31 04:41:38;;;;;;;12.18;9.18;;;;;;;7.10;79.67;97100.75;5094791;28;20020;-66
2021/10/31 04:44:04;;;;;;;9.57;8.05;;;;;;;7.13;80.02;97099.88;5095792;28;20032;-63
2021/10/31 04:46:30;;;;;;;10.38;8.10;;;;;;;7.14;79.43;97096.38;5095607;28;20031;-66
2021/10/31 04:48:55;;;;;;;8.43;7.45;;;;;;;7.16;79.37;97094.59;5095586;28;20031;-63
2021/10/31 04:51:21;;;;;;;10.88;6.70;;;;;;;7.14;79.82;97096.38;5095514;28;20039;-63
2021/10/31 04:53:47;;;;;;;14.10;7.60;;;;;;;7.13;79.99;97094.66;5095560;28;20027;-63
2021/10/31 04:56:12;;;;;;;15.20;7.60;;;;;;;7.15;79.31;97090.28;5095623;28;20023;-60
2021/10/31 04:58:38;;;;;;;8.63;7.32;;;;;;;7.10;79.69;97089.50;5095274;28;20028;-64
2021/10/31 05:01:04;;;;;;;12.27;7.82;;;;;;;7.14;79.70;97079.03;5095537;28;20366;-62
2021/10/31 05:03:29;;;;;;;9.82;7.35;;;;;;;7.18;79.49;97085.03;5095359;28;20051;-66
2021/10/31 05:05:55;;;;;;;10.27;7.65;;;;;;;7.22;79.74;97083.25;5095366;28;20024;-66
2021/10/31 05:08:20;;;;;;;12.40;7.72;;;;;;;7.23;79.83;97084.97;5095354;28;20028;-63
2021/10/31 05:10:46;;;;;;;11.45;8.30;;;;;;;7.22;79.60;97076.28;5095279;28;20016;-63
2021/10/31 05:13:11;;;;;;;11.82;8.57;;;;;;;7.24;79.60;97078.88;5095196;28;20023;-61
2021/10/31 05:15:38;;;;;;;10.02;8.90;;;;;;;7.25;79.90;97083.22;5095102;28;20027;-64
2021/10/31 05:18:04;;;;;;;11.57;8.00;;;;;;;7.22;79.83;97085.84;5095115;28;20119;-65
2021/10/31 05:20:29;;;;;;;11.75;8.40;;;;;;;7.19;79.98;97095.41;5095072;28;20020;-63
2021/10/31 05:22:55;;;;;;;16.85;8.90;;;;;;;7.25;79.77;97081.44;5095066;28;20020;-66
2021/10/31 05:25:21;;;;;;;11.65;8.65;;;;;;;7.32;80.14;97087.41;5093646;28;20059;-66
2021/10/31 05:27:46;;;;;;;15.70;9.27;;;;;;;7.38;79.99;97089.06;5094930;28;20102;-66
2021/10/31 05:30:13;;;;;;;9.45;8.02;;;;;;;7.40;80.03;97089.88;5094869;28;20478;-66
2021/10/31 05:32:40;;;;;;;11.45;8.25;;;;;;;7.43;79.72;97098.50;5094877;28;20470;-62
2021/10/31 05:35:09;;;;;;;8.02;6.88;;;;;;;7.48;79.47;97090.63;5094845;28;20029;-63
2021/10/31 05:37:42;;;;;;;11.13;7.25;;;;;;;7.45;79.69;97088.94;5094743;28;20351;-64
2021/10/31 05:40:10;;;;;;;9.50;7.65;;;;;;;7.47;79.45;97091.53;5094656;28;20028;-65
2021/10/31 05:42:36;;;;;;;13.05;7.72;;;;;;;7.53;79.88;97087.94;5094586;28;20024;-63
2021/10/31 05:45:02;;;;;;;11.40;8.68;;;;;;;7.57;79.45;97093.09;5094495;28;20061;-65
2021/10/31 05:47:28;;;;;;;11.90;9.20;;;;;;;7.62;78.82;97090.41;5094593;28;20375;-66
2021/10/31 05:49:55;;;;;;;9.60;8.38;;;;;;;7.68;78.40;97092.03;5094572;28;20019;-62
2021/10/31 05:52:20;;;;;;;24.52;17.05;;;;;;;7.74;78.70;97080.66;5094239;28;20047;-65
2021/10/31 05:54:46;;;;;;;30.70;17.55;;;;;;;7.82;78.67;97084.81;5094437;28;20109;-65
2021/10/31 05:57:12;;;;;;;23.67;13.75;;;;;;;7.89;78.39;97077.75;5094204;28;20158;-64
2021/10/31 05:59:37;;;;;;;12.93;8.68;;;;;;;7.97;79.65;97082.81;5094065;28;20292;-65
2021/10/31 06:02:07;;;;;;;9.82;7.70;;;;;;;8.01;80.03;97087.06;5094199;28;20020;-63
2021/10/31 06:04:32;;;;;;;11.02;7.85;;;;;;;8.06;79.25;97080.03;5094187;28;20098;-61
2021/10/31 06:06:58;;;;;;;13.50;9.88;;;;;;;8.14;78.19;97086.84;5094210;28;20484;-66
2021/10/31 06:09:25;;;;;;;13.07;9.02;;;;;;;8.18;77.46;97088.50;5094129;28;20083;-61
2021/10/31 06:11:50;;;;;;;14.43;9.80;;;;;;;8.21;76.57;97089.31;5094047;28;20059;-63
2021/10/31 06:14:16;;;;;;;14.38;9.48;;;;;;;8.26;76.29;97090.97;5094087;28;20073;-63
2021/10/31 06:16:42;;;;;;;12.27;9.35;;;;;;;8.27;76.19;97098.75;5094031;28;20028;-61
2021/10/31 06:19:07;;;;;;;11.25;9.00;;;;;;;8.31;75.92;97089.97;5093931;28;20035;-63
2021/10/31 06:21:33;;;;;;;9.27;7.90;;;;;;;8.41;75.21;97097.63;5093933;28;20020;-62
2021/10/31 06:23:59;;;;;;;49.50;27.10;;;;;;;8.43;75.21;97095.84;5094103;28;20016;-65
2021/10/31 06:26:24;;;;;;;45.83;24.90;;;;;;;8.54;75.54;97096.50;5093798;28;20474;-62
2021/10/31 06:28:50;;;;;;;30.65;17.75;;;;;;;8.64;75.09;97098.94;5093897;28;20067;-61
2021/10/31 06:31:15;;;;;;;29.45;16.60;;;;;;;8.71;73.83;97100.50;5093662;28;20398;-63
2021/10/31 06:33:42;;;;;;;36.75;19.23;;;;;;;8.80;74.89;97095.09;5093750;28;20037;-62
2021/10/31 06:36:08;;;;;;;19.20;13.02;;;;;;;8.89;75.83;97095.78;5093668;28;20024;-64
2021/10/31 06:38:34;;;;;;;17.25;10.88;;;;;;;9.05;76.34;97099.75;5093708;28;20048;-64
2021/10/31 06:40:59;;;;;;;15.27;11.57;;;;;;;9.19;75.93;97104.66;5093614;28;20063;-64
2021/10/31 06:43:25;;;;;;;79.10;44.92;;;;;;;9.34;73.49;97102.56;5093452;28;20108;-66
2021/10/31 06:45:51;;;;;;;67.50;37.72;;;;;;;9.52;72.44;97098.66;5093345;28;20024;-65
2021/10/31 06:48:16;;;;;;;26.95;16.73;;;;;;;9.65;72.20;97098.34;5093513;28;20103;-65
2021/10/31 06:50:42;;;;;;;18.13;11.18;;;;;;;9.79;70.89;97098.84;5093493;28;20016;-64
2021/10/31 06:53:07;;;;;;;9.80;7.70;;;;;;;9.82;68.34;97093.53;5093551;28;20035;-62
2021/10/31 06:55:34;;;;;;;9.93;7.20;;;;;;;9.95;67.77;97099.31;5093359;28;20028;-64
2021/10/31 06:58:00;;;;;;;8.45;6.38;;;;;;;10.01;66.55;97100.03;5093343;28;20076;-65
2021/10/31 07:00:26;;;;;;;10.18;5.95;;;;;;;10.03;65.25;97088.66;5093079;28;20051;-61
2021/10/31 07:02:52;;;;;;;8.75;5.82;;;;;;;10.21;67.02;97095.13;5093187;28;20024;-65
2021/10/31 07:05:19;;;;;;;7.45;5.70;;;;;;;10.94;66.83;97097.44;5092571;28;20082;-64
2021/10/31 07:07:44;;;;;;;5.97;5.38;;;;;;;11.23;62.72;97086.97;5093129;28;20035;-62
2021/10/31 07:10:13;;;;;;;10.95;5.45;;;;;;;11.17;60.87;97093.22;5093314;28;20024;-62
2021/10/31 07:12:41;;;;;;;6.65;5.32;;;;;;;11.08;61.80;97085.69;5093119;28;20134;-64
2021/10/31 07:15:07;;;;;;;8.18;6.53;;;;;;;11.06;62.37;97083.09;5093029;28;20017;-63
2021/10/31 07:17:33;;;;;;;13.45;9.65;;;;;;;11.20;64.34;97090.50;5093143;28;20025;-63
2021/10/31 07:19:58;;;;;;;10.57;6.97;;;;;;;11.40;64.36;97088.16;5093134;28;20364;-61
2021/10/31 07:22:24;;;;;;;7.97;5.22;;;;;;;11.51;64.01;97083.44;5093097;28;20020;-64
2021/10/31 07:24:51;;;;;;;8.02;5.80;;;;;;;11.73;63.48;97090.56;5093074;28;20107;-64
2021/10/31 07:27:17;;;;;;;11.40;6.68;;;;;;;12.00;62.59;97093.16;5093112;28;20460;-59
2021/10/31 07:29:43;;;;;;;9.05;6.95;;;;;;;12.21;61.86;97094.19;5093015;28;20123;-63
2021/10/31 07:32:08;;;;;;;7.85;6.45;;;;;;;12.52;60.62;97086.97;5093009;28;20028;-62
2021/10/31 07:34:34;;;;;;;8.07;5.97;;;;;;;12.82;59.55;97080.63;5093028;28;20032;-61
2021/10/31 07:37:00;;;;;;;7.68;5.07;;;;;;;12.93;59.00;97083.69;5092929;28;20105;-63
2021/10/31 07:39:28;;;;;;;8.38;5.22;;;;;;;13.03;58.26;97084.16;5092933;28;20028;-62
2021/10/31 07:41:54;;;;;;;7.22;5.30;;;;;;;13.16;58.08;97083.69;5093045;28;20055;-61
2021/10/31 07:44:20;;;;;;;7.65;4.53;;;;;;;13.35;56.24;97087.28;5092977;28;20097;-63
2021/10/31 07:46:45;;;;;;;6.75;5.18;;;;;;;13.77;55.38;97085.63;5092741;28;20474;-62
2021/10/31 07:49:11;;;;;;;7.20;4.60;;;;;;;15.28;51.72;97079.78;5092846;28;20024;-64
2021/10/31 07:51:37;;;;;;;5.50;4.55;;;;;;;15.48;50.66;97072.69;5091637;28;20103;-67
2021/10/31 07:54:03;;;;;;;6.47;4.97;;;;;;;15.37;50.38;97075.84;5092753;28;20024;-66
2021/10/31 07:56:33;;;;;;;6.68;4.57;;;;;;;15.04;48.62;97080.03;5092905;28;20056;-63
2021/10/31 07:58:59;;;;;;;4.97;3.93;;;;;;;14.62;47.84;97079.31;5092617;28;20063;-60
2021/10/31 08:01:25;;;;;;;7.07;5.10;;;;;;;14.27;49.76;97085.25;5092738;28;20486;-63
2021/10/31 08:03:54;;;;;;;6.68;4.35;;;;;;;13.71;51.28;97070.09;5092740;28;20028;-63
2021/10/31 08:06:24;;;;;;;5.75;4.28;;;;;;;13.47;51.61;97070.16;5092610;28;20083;-65
2021/10/31 08:08:50;;;;;;;6.00;4.60;;;;;;;13.37;52.86;97071.47;5092570;28;20428;-64
2021/10/31 08:11:16;;;;;;;8.68;4.05;;;;;;;13.21;52.61;97071.22;5092737;28;20434;-62
2021/10/31 08:13:42;;;;;;;9.05;4.22;;;;;;;12.95;52.69;97070.50;5092561;28;20108;-60
2021/10/31 08:16:08;;;;;;;5.25;4.63;;;;;;;12.83;52.91;97062.19;5094264;28;20401;-62
2021/10/31 08:18:34;;;;;;;4.97;4.13;;;;;;;12.73;54.48;97068.69;5096294;28;20523;-62
2021/10/31 08:20:59;;;;;;;7.93;4.55;;;;;;;12.54;53.41;97061.53;5096189;28;20032;-66
2021/10/31 08:23:26;;;;;;;4.75;3.75;;;;;;;12.48;54.19;97067.88;5096197;28;20016;-63
2021/10/31 08:25:52;;;;;;;7.65;4.90;;;;;;;12.44;54.63;97066.28;5096107;28;20024;-60
2021/10/31 08:28:20;;;;;;;5.80;4.72;;;;;;;12.40;54.55;97071.69;5096110;28;20373;-64
2021/10/31 08:30:56;;;;;;;5.82;4.28;;;;;;;12.29;54.65;97075.56;5096102;28;20385;-63
2021/10/31 08:33:28;;;;;;;4.35;3.92;;;;;;;12.21;53.51;97073.22;5094756;28;20367;-66
2021/10/31 08:35:55;;;;;;;5.15;4.20;;;;;;;12.09;54.56;97074.50;5095983;28;20466;-63
2021/10/31 08:38:21;;;;;;;6.00;4.50;;;;;;;11.98;54.93;97074.00;5095906;28;20032;-65
2021/10/31 08:40:50;;;;;;;8.82;4.47;;;;;;;11.93;55.57;97079.41;5095931;28;20031;-64
2021/10/31 08:43:17;;;;;;;4.88;4.10;;;;;;;11.77;55.10;97071.19;5095815;28;20045;-63
2021/10/31 08:45:44;;;;;;;5.90;3.70;;;;;;;11.74;54.27;97072.16;5095686;28;20385;-62
2021/10/31 08:48:10;;;;;;;5.03;4.10;;;;;;;11.69;55.06;97071.47;5094675;28;20427;-65
2021/10/31 08:50:36;;;;;;;5.68;4.00;;;;;;;11.60;54.85;97071.78;5095681;28;20532;-61
2021/10/31 08:53:04;;;;;;;5.97;3.75;;;;;;;11.47;55.67;97068.72;5095689;28;20020;-65
2021/10/31 08:55:31;;;;;;;6.18;4.47;;;;;;;11.45;56.07;97071.41;5095574;28;20028;-63
2021/10/31 08:57:57;;;;;;;7.40;3.97;;;;;;;11.49;56.08;97073.00;5095517;28;20044;-66
2021/10/31 09:00:23;;;;;;;10.10;4.40;;;;;;;11.52;56.45;97063.31;5095247;28;20046;-66
2021/10/31 09:02:50;;;;;;;7.53;4.53;;;;;;;11.46;56.88;97064.38;5095448;28;20027;-65
2021/10/31 09:05:16;;;;;;;4.75;3.90;;;;;;;11.43;57.06;97054.88;5095205;28;20024;-61
2021/10/31 09:07:42;;;;;;;6.20;4.07;;;;;;;11.35;57.00;97060.34;5095412;28;20038;-61
2021/10/31 09:10:08;;;;;;;5.95;4.65;;;;;;;11.24;57.30;97065.97;5095223;28;20012;-66
2021/10/31 09:12:34;;;;;;;7.75;4.35;;;;;;;11.18;58.84;97058.31;5095152;28;20024;-61
2021/10/31 09:14:59;;;;;;;4.85;3.95;;;;;;;11.16;58.97;97062.72;5095085;28;20016;-64
2021/10/31 09:17:26;;;;;;;6.57;4.40;;;;;;;11.11;58.23;97062.03;5095160;28;20031;-63
2021/10/31 09:19:52;;;;;;;5.45;4.55;;;;;;;11.02;59.56;97054.44;5095086;28;20031;-62
2021/10/31 09:22:18;;;;;;;6.32;4.85;;;;;;;10.95;60.70;97066.88;5094948;28;20028;-65
2021/10/31 09:24:43;;;;;;;9.35;4.60;;;;;;;10.76;61.43;97059.59;5095019;28;20112;-62
2021/10/31 09:27:09;;;;;;;6.88;4.82;;;;;;;10.64;62.15;97063.44;5094399;28;20024;-61
2021/10/31 09:29:35;;;;;;;7.03;4.90;;;;;;;10.61;62.77;97053.94;5095064;28;20042;-62
2021/10/31 09:32:01;;;;;;;12.02;7.68;;;;;;;10.63;62.67;97050.41;5094877;28;20529;-62
2021/10/31 09:34:29;;;;;;;15.50;9.00;;;;;;;10.63;62.38;97051.28;5094841;28;20026;-62
2021/10/31 09:36:56;;;;;;;8.75;5.18;;;;;;;10.63;62.56;97053.00;5094785;28;20078;-65
2021/10/31 09:39:23;;;;;;;6.32;5.15;;;;;;;10.54;63.51;97047.13;5094796;28;20031;-63
2021/10/31 09:41:50;;;;;;;10.98;5.47;;;;;;;10.56;63.86;97040.13;5094791;28;20469;-62
2021/10/31 09:46:43;;;;;;;9.32;6.00;;;;;;;10.48;64.80;97027.25;5094494;28;20032;-62
2021/10/31 09:49:10;;;;;;;9.38;6.10;;;;;;;10.42;65.84;97035.25;5094648;28;20393;-62
2021/10/31 09:51:36;;;;;;;9.23;6.07;;;;;;;10.41;66.75;97030.09;5094563;28;20436;-65
2021/10/31 09:54:02;;;;;;;9.73;5.80;;;;;;;10.49;67.64;97022.91;5094535;28;20403;-60
2021/10/31 09:56:29;;;;;;;11.98;7.55;;;;;;;10.50;67.23;97021.97;5094439;28;20027;-64
2021/10/31 09:58:59;;;;;;;8.80;6.50;;;;;;;10.52;67.41;97014.97;5094003;28;20075;-63
2021/10/31 10:04:27;;;;;;;9.77;6.30;;;;;;;10.60;68.47;97009.50;5094513;28;20061;-64
2021/10/31 10:06:54;;;;;;;8.40;6.20;;;;;;;10.72;68.51;97010.88;5094187;28;20020;-63
2021/10/31 10:09:20;;;;;;;7.50;5.53;;;;;;;10.78;67.63;97007.22;5094186;28;20012;-62
2021/10/31 10:11:49;;;;;;;7.07;5.10;;;;;;;10.85;66.65;97000.88;5094160;28;20047;-65
2021/10/31 10:14:31;;;;;;;6.70;5.90;;;;;;;10.94;66.63;96997.09;5094221;28;20024;-64
2021/10/31 10:17:02;;;;;;;6.53;5.63;;;;;;;11.02;66.95;96989.88;5094036;28;20069;-62
2021/10/31 10:19:32;;;;;;;7.78;5.70;;;;;;;11.15;66.00;96994.69;5094094;28;20025;-67
2021/10/31 10:22:07;;;;;;;6.63;5.18;;;;;;;11.25;64.07;96993.47;5093872;28;20443;-64
2021/10/31 10:24:40;;;;;;;7.93;5.72;;;;;;;11.33;64.47;96988.84;5093902;28;20520;-64
2021/10/31 10:27:08;;;;;;;10.43;6.32;;;;;;;11.50;64.32;96980.41;5093907;28;20032;-61
2021/10/31 10:29:37;;;;;;;7.68;5.72;;;;;;;11.64;64.45;96981.69;5093771;28;20062;-62
2021/10/31 10:32:07;;;;;;;8.20;5.35;;;;;;;11.81;63.63;96977.59;5093737;28;20036;-65
2021/10/31 10:34:47;;;;;;;5.45;4.18;;;;;;;11.91;63.58;96972.88;5093696;28;20012;-59
2021/10/31 10:37:18;;;;;;;8.70;4.82;;;;;;;12.02;63.08;96962.84;5093643;28;20085;-62
2021/10/31 10:39:57;;;;;;;6.97;5.10;;;;;;;12.11;63.44;96972.19;5092874;28;20038;-65
2021/10/31 10:42:28;;;;;;;5.90;5.28;;;;;;;12.06;62.69;96964.44;5093454;28;20120;-60
2021/10/31 10:45:05;;;;;;;8.15;5.05;;;;;;;12.06;62.76;96958.34;5093602;28;20538;-62
2021/10/31 10:47:32;;;;;;;9.07;5.60;;;;;;;12.07;62.71;96960.94;5092180;28;20103;-65
2021/10/31 10:50:00;;;;;;;10.55;5.72;;;;;;;12.08;62.54;96956.56;5093316;28;20363;-61
2021/10/31 10:52:31;;;;;;;17.83;11.70;;;;;;;12.09;62.05;96953.88;5093333;28;20058;-63
2021/10/31 10:55:02;;;;;;;15.50;8.85;;;;;;;12.07;61.94;96950.44;5093390;28;20020;-64
2021/10/31 10:57:31;;;;;;;13.63;7.13;;;;;;;12.06;62.35;96951.34;5093081;28;20020;-65
2021/10/31 11:00:01;;;;;;;7.13;5.67;;;;;;;12.07;62.15;96947.81;5093105;28;20040;-62
2021/10/31 11:02:27;;;;;;;7.40;4.93;;;;;;;12.06;61.98;96938.22;5093260;28;20035;-64
2021/10/31 11:04:59;;;;;;;7.68;4.88;;;;;;;12.14;62.10;96943.22;5093230;28;20047;-64
2021/10/31 11:07:39;;;;;;;6.47;4.45;;;;;;;12.26;62.01;96934.03;5092934;28;20035;-64
2021/10/31 11:10:11;;;;;;;6.63;4.60;;;;;;;12.30;61.22;96932.13;5093234;28;20024;-62
2021/10/31 11:12:40;;;;;;;8.50;4.50;;;;;;;12.28;60.84;96932.19;5093187;28;20023;-60
2021/10/31 11:15:15;;;;;;;9.25;5.10;;;;;;;12.24;61.73;96933.22;5093100;28;20563;-60
2021/10/31 11:17:42;;;;;;;5.47;4.30;;;;;;;12.22;61.74;96932.44;5092902;28;20035;-64
2021/10/31 11:20:11;;;;;;;8.13;5.25;;;;;;;12.18;61.87;96929.06;5093053;28;20098;-64
2021/10/31 11:22:39;;;;;;;5.78;4.65;;;;;;;12.24;61.85;96922.72;5093069;28;20024;-62
2021/10/31 11:25:08;;;;;;;8.57;5.07;;;;;;;12.24;62.04;96918.34;5092981;28;20110;-64
2021/10/31 11:27:34;;;;;;;7.47;4.78;;;;;;;12.29;62.34;96917.31;5092689;28;20081;-63
2021/10/31 11:30:01;;;;;;;7.68;5.10;;;;;;;12.36;62.11;96918.78;5092846;28;20114;-62
2021/10/31 11:32:29;;;;;;;6.47;4.97;;;;;;;12.45;62.13;96913.19;5092984;28;20032;-61
2021/10/31 11:34:58;;;;;;;5.63;4.45;;;;;;;12.43;62.06;96909.75;5093043;28;20028;-64
2021/10/31 11:37:45;;;;;;;7.70;4.63;;;;;;;12.47;61.28;96907.88;5092936;28;20020;-62
2021/10/31 11:40:13;;;;;;;7.22;4.60;;;;;;;12.41;61.54;96902.84;5092567;28;20077;-62
2021/10/31 11:42:43;;;;;;;6.45;5.25;;;;;;;12.35;61.98;96907.44;5093031;28;20020;-63
2021/10/31 11:45:22;;;;;;;14.48;7.50;;;;;;;12.24;61.82;96897.38;5092385;28;20131;-61